Terminal Aerodrome Forecast
Issued by NWS Knoxville/Tri Cities, TN

Home | Current Version | Previous Version | Text Only | Print | Product List | Glossary On
Versions: 1 2 3 4 5 6 7 8 9 10 11 12 13 14 15 16 17 18 19 20 21 22 23 24 25 26 27 28
000
FTUS44 KMRX 290532 CCA
TAFTRI
TAF COR
KTRI 290532Z 2906/3006 00000KT 1/4SM FG BKN004
      TEMPO 2909/2912 1/4SM FG OVC002
     FM291300 VRB03KT 3SM BR SCT015
     FM291400 20005KT P6SM SCT035
     FM291500 22005KT P6SM SCT100 PROB30 2922/3001 4SM -TSRA BR
      OVC025CB
     FM300400 VRB03KT P6SM BKN100=

USA.gov is the U.S. government's official web portal to all federal, state and local government web resources and services.